sensor_id;sensor_type;location;lat;lon;timestamp;temperature;humidity
3330;DHT22;1677;49.576;10.990;2023-04-24T00:01:39;12.10;99.90
3330;DHT22;1677;49.576;10.990;2023-04-24T00:04:05;12.20;99.90
3330;DHT22;1677;49.576;10.990;2023-04-24T00:06:32;12.00;99.90
3330;DHT22;1677;49.576;10.990;2023-04-24T00:09:05;12.30;99.90
3330;DHT22;1677;49.576;10.990;2023-04-24T00:11:31;12.40;99.90
3330;DHT22;1677;49.576;10.990;2023-04-24T00:13:56;12.30;99.90
3330;DHT22;1677;49.576;10.990;2023-04-24T00:16:22;12.20;99.90
3330;DHT22;1677;49.576;10.990;2023-04-24T00:18:48;12.20;99.90
3330;DHT22;1677;49.576;10.990;2023-04-24T00:21:14;12.00;99.90
3330;DHT22;1677;49.576;10.990;2023-04-24T00:23:43;11.90;99.90
3330;DHT22;1677;49.576;10.990;2023-04-24T00:26:09;11.90;99.90
3330;DHT22;1677;49.576;10.990;2023-04-24T00:28:34;11.80;99.90
3330;DHT22;1677;49.576;10.990;2023-04-24T00:31:00;11.70;99.90
3330;DHT22;1677;49.576;10.990;2023-04-24T00:33:26;11.70;99.90
3330;DHT22;1677;49.576;10.990;2023-04-24T00:35:51;11.80;99.90
3330;DHT22;1677;49.576;10.990;2023-04-24T00:38:17;11.70;99.90
3330;DHT22;1677;49.576;10.990;2023-04-24T00:40:42;11.70;99.90
3330;DHT22;1677;49.576;10.990;2023-04-24T00:43:08;11.60;99.90
3330;DHT22;1677;49.576;10.990;2023-04-24T00:45:34;11.50;99.90
3330;DHT22;1677;49.576;10.990;2023-04-24T00:48:00;11.50;99.90
3330;DHT22;1677;49.576;10.990;2023-04-24T00:50:26;11.50;99.90
3330;DHT22;1677;49.576;10.990;2023-04-24T00:52:52;11.80;99.90
3330;DHT22;1677;49.576;10.990;2023-04-24T00:55:18;12.00;99.90
3330;DHT22;1677;49.576;10.990;2023-04-24T00:57:44;11.80;99.90
3330;DHT22;1677;49.576;10.990;2023-04-24T01:00:11;11.70;99.90
3330;DHT22;1677;49.576;10.990;2023-04-24T01:02:41;11.80;99.90
3330;DHT22;1677;49.576;10.990;2023-04-24T01:05:13;11.70;99.90
3330;DHT22;1677;49.576;10.990;2023-04-24T01:07:41;11.50;99.90
3330;DHT22;1677;49.576;10.990;2023-04-24T01:10:10;11.60;99.90
3330;DHT22;1677;49.576;10.990;2023-04-24T01:12:36;11.50;99.90
3330;DHT22;1677;49.576;10.990;2023-04-24T01:15:02;11.50;99.90
3330;DHT22;1677;49.576;10.990;2023-04-24T01:17:29;11.60;99.90
3330;DHT22;1677;49.576;10.990;2023-04-24T01:19:54;11.60;99.90
3330;DHT22;1677;49.576;10.990;2023-04-24T01:22:22;11.50;99.90
3330;DHT22;1677;49.576;10.990;2023-04-24T01:24:48;11.50;99.90
3330;DHT22;1677;49.576;10.990;2023-04-24T01:27:14;11.50;99.90
3330;DHT22;1677;49.576;10.990;2023-04-24T01:29:39;11.40;99.90
3330;DHT22;1677;49.576;10.990;2023-04-24T01:32:05;11.40;99.90
3330;DHT22;1677;49.576;10.990;2023-04-24T01:34:31;11.30;99.90
3330;DHT22;1677;49.576;10.990;2023-04-24T01:36:57;11.30;99.90
3330;DHT22;1677;49.576;10.990;2023-04-24T01:39:23;11.30;99.90
3330;DHT22;1677;49.576;10.990;2023-04-24T01:41:54;11.30;99.90
3330;DHT22;1677;49.576;10.990;2023-04-24T01:44:20;11.30;99.90
3330;DHT22;1677;49.576;10.990;2023-04-24T01:46:46;11.40;99.90
3330;DHT22;1677;49.576;10.990;2023-04-24T01:49:11;11.40;99.90
3330;DHT22;1677;49.576;10.990;2023-04-24T01:51:37;11.40;99.90
3330;DHT22;1677;49.576;10.990;2023-04-24T01:54:06;11.30;99.90
3330;DHT22;1677;49.576;10.990;2023-04-24T01:56:33;11.30;99.90
3330;DHT22;1677;49.576;10.990;2023-04-24T01:59:02;11.40;99.90
3330;DHT22;1677;49.576;10.990;2023-04-24T02:01:36;11.30;99.90
3330;DHT22;1677;49.576;10.990;2023-04-24T02:04:02;11.30;99.90
3330;DHT22;1677;49.576;10.990;2023-04-24T02:06:28;11.30;99.90
3330;DHT22;1677;49.576;10.990;2023-04-24T02:08:54;11.20;99.90
3330;DHT22;1677;49.576;10.990;2023-04-24T02:11:19;11.20;99.90
3330;DHT22;1677;49.576;10.990;2023-04-24T02:13:45;11.20;99.90
3330;DHT22;1677;49.576;10.990;2023-04-24T02:16:10;11.30;99.90
3330;DHT22;1677;49.576;10.990;2023-04-24T02:18:36;11.30;99.90
3330;DHT22;1677;49.576;10.990;2023-04-24T02:21:02;11.30;99.90
3330;DHT22;1677;49.576;10.990;2023-04-24T02:23:27;11.30;99.90
3330;DHT22;1677;49.576;10.990;2023-04-24T02:25:53;11.30;99.90
3330;DHT22;1677;49.576;10.990;2023-04-24T02:28:19;11.30;99.90
3330;DHT22;1677;49.576;10.990;2023-04-24T02:30:44;11.20;99.90
3330;DHT22;1677;49.576;10.990;2023-04-24T02:33:11;11.20;99.90
3330;DHT22;1677;49.576;10.990;2023-04-24T02:35:37;11.20;99.90
3330;DHT22;1677;49.576;10.990;2023-04-24T02:38:03;11.20;99.90
3330;DHT22;1677;49.576;10.990;2023-04-24T02:40:29;11.20;99.90
3330;DHT22;1677;49.576;10.990;2023-04-24T02:42:54;11.20;99.90
3330;DHT22;1677;49.576;10.990;2023-04-24T02:45:20;11.20;99.90
3330;DHT22;1677;49.576;10.990;2023-04-24T02:47:45;11.20;99.90
3330;DHT22;1677;49.576;10.990;2023-04-24T02:50:11;11.20;99.90
3330;DHT22;1677;49.576;10.990;2023-04-24T02:52:37;11.20;99.90
3330;DHT22;1677;49.576;10.990;2023-04-24T02:55:02;11.10;99.90
3330;DHT22;1677;49.576;10.990;2023-04-24T02:57:28;11.20;99.90
3330;DHT22;1677;49.576;10.990;2023-04-24T02:59:54;11.20;99.90
3330;DHT22;1677;49.576;10.990;2023-04-24T03:02:19;11.20;99.90
3330;DHT22;1677;49.576;10.990;2023-04-24T03:04:46;11.30;99.90
3330;DHT22;1677;49.576;10.990;2023-04-24T03:07:13;11.20;99.90
3330;DHT22;1677;49.576;10.990;2023-04-24T03:09:40;11.30;99.90
3330;DHT22;1677;49.576;10.990;2023-04-24T03:12:05;11.20;99.90
3330;DHT22;1677;49.576;10.990;2023-04-24T03:14:31;11.20;99.90
3330;DHT22;1677;49.576;10.990;2023-04-24T03:16:57;11.10;99.90
3330;DHT22;1677;49.576;10.990;2023-04-24T03:19:22;11.10;99.90
3330;DHT22;1677;49.576;10.990;2023-04-24T03:21:48;11.10;99.90
3330;DHT22;1677;49.576;10.990;2023-04-24T03:24:14;11.00;99.90
3330;DHT22;1677;49.576;10.990;2023-04-24T03:26:40;11.00;99.90
3330;DHT22;1677;49.576;10.990;2023-04-24T03:29:05;10.90;99.90
3330;DHT22;1677;49.576;10.990;2023-04-24T03:31:31;11.00;99.90
3330;DHT22;1677;49.576;10.990;2023-04-24T03:33:56;11.10;99.90
3330;DHT22;1677;49.576;10.990;2023-04-24T03:36:22;11.10;99.90
3330;DHT22;1677;49.576;10.990;2023-04-24T03:38:47;11.10;99.90
3330;DHT22;1677;49.576;10.990;2023-04-24T03:41:13;11.00;99.90
3330;DHT22;1677;49.576;10.990;2023-04-24T03:43:39;11.00;99.90
3330;DHT22;1677;49.576;10.990;2023-04-24T03:46:04;11.00;99.90
3330;DHT22;1677;49.576;10.990;2023-04-24T03:48:30;10.90;99.90
3330;DHT22;1677;49.576;10.990;2023-04-24T03:50:55;10.80;99.90
3330;DHT22;1677;49.576;10.990;2023-04-24T03:53:21;10.80;99.90
3330;DHT22;1677;49.576;10.990;2023-04-24T03:55:47;10.70;99.90
3330;DHT22;1677;49.576;10.990;2023-04-24T03:58:12;10.70;99.90
3330;DHT22;1677;49.576;10.990;2023-04-24T04:00:41;10.70;99.90
3330;DHT22;1677;49.576;10.990;2023-04-24T04:03:07;10.80;99.90
3330;DHT22;1677;49.576;10.990;2023-04-24T04:05:32;10.80;99.90
3330;DHT22;1677;49.576;10.990;2023-04-24T04:07:58;10.70;99.90
3330;DHT22;1677;49.576;10.990;2023-04-24T04:10:23;10.70;99.90
3330;DHT22;1677;49.576;10.990;2023-04-24T04:12:49;10.70;99.90
3330;DHT22;1677;49.576;10.990;2023-04-24T04:15:15;10.60;99.90
3330;DHT22;1677;49.576;10.990;2023-04-24T04:17:40;10.70;99.90
3330;DHT22;1677;49.576;10.990;2023-04-24T04:20:06;10.80;99.90
3330;DHT22;1677;49.576;10.990;2023-04-24T04:22:36;10.90;99.90
3330;DHT22;1677;49.576;10.990;2023-04-24T04:25:03;11.30;99.90
3330;DHT22;1677;49.576;10.990;2023-04-24T04:27:28;11.30;99.90
3330;DHT22;1677;49.576;10.990;2023-04-24T04:30:03;11.40;99.90
3330;DHT22;1677;49.576;10.990;2023-04-24T04:32:34;11.30;99.90
3330;DHT22;1677;49.576;10.990;2023-04-24T04:35:03;11.30;99.90
3330;DHT22;1677;49.576;10.990;2023-04-24T04:37:33;11.20;99.90
3330;DHT22;1677;49.576;10.990;2023-04-24T04:39:59;11.10;99.90
3330;DHT22;1677;49.576;10.990;2023-04-24T04:42:25;11.00;99.90
3330;DHT22;1677;49.576;10.990;2023-04-24T04:44:52;10.90;99.90
3330;DHT22;1677;49.576;10.990;2023-04-24T04:47:18;10.80;99.90
3330;DHT22;1677;49.576;10.990;2023-04-24T04:49:47;10.80;99.90
3330;DHT22;1677;49.576;10.990;2023-04-24T04:52:13;10.80;99.90
3330;DHT22;1677;49.576;10.990;2023-04-24T04:54:39;10.80;99.90
3330;DHT22;1677;49.576;10.990;2023-04-24T04:57:05;10.90;99.90
3330;DHT22;1677;49.576;10.990;2023-04-24T04:59:30;10.90;99.90
3330;DHT22;1677;49.576;10.990;2023-04-24T05:01:56;10.90;99.90
3330;DHT22;1677;49.576;10.990;2023-04-24T05:04:22;10.90;99.90
3330;DHT22;1677;49.576;10.990;2023-04-24T05:06:47;10.90;99.90
3330;DHT22;1677;49.576;10.990;2023-04-24T05:09:13;10.90;99.90
3330;DHT22;1677;49.576;10.990;2023-04-24T05:11:38;10.90;99.90
3330;DHT22;1677;49.576;10.990;2023-04-24T05:14:04;10.90;99.90
3330;DHT22;1677;49.576;10.990;2023-04-24T05:16:29;11.00;99.90
3330;DHT22;1677;49.576;10.990;2023-04-24T05:18:56;11.00;99.90
3330;DHT22;1677;49.576;10.990;2023-04-24T05:21:21;11.20;99.90
3330;DHT22;1677;49.576;10.990;2023-04-24T05:23:47;11.30;99.90
3330;DHT22;1677;49.576;10.990;2023-04-24T05:26:13;11.30;99.90
3330;DHT22;1677;49.576;10.990;2023-04-24T05:28:39;11.40;99.90
3330;DHT22;1677;49.576;10.990;2023-04-24T05:31:05;11.30;99.90
3330;DHT22;1677;49.576;10.990;2023-04-24T05:33:31;11.30;99.90
3330;DHT22;1677;49.576;10.990;2023-04-24T05:35:57;11.10;99.90
3330;DHT22;1677;49.576;10.990;2023-04-24T05:38:23;11.20;99.90
3330;DHT22;1677;49.576;10.990;2023-04-24T05:40:48;11.20;99.90
3330;DHT22;1677;49.576;10.990;2023-04-24T05:43:14;11.20;99.90
3330;DHT22;1677;49.576;10.990;2023-04-24T05:45:39;11.20;99.90
3330;DHT22;1677;49.576;10.990;2023-04-24T05:48:05;11.30;99.90
3330;DHT22;1677;49.576;10.990;2023-04-24T05:50:31;11.40;99.90
3330;DHT22;1677;49.576;10.990;2023-04-24T05:52:57;11.50;99.90
3330;DHT22;1677;49.576;10.990;2023-04-24T05:55:27;11.50;99.90
3330;DHT22;1677;49.576;10.990;2023-04-24T05:57:53;11.40;99.90
3330;DHT22;1677;49.576;10.990;2023-04-24T06:00:18;11.40;99.90
3330;DHT22;1677;49.576;10.990;2023-04-24T06:02:45;11.30;99.90
3330;DHT22;1677;49.576;10.990;2023-04-24T06:05:11;11.40;99.90
3330;DHT22;1677;49.576;10.990;2023-04-24T06:07:37;11.50;99.90
3330;DHT22;1677;49.576;10.990;2023-04-24T06:10:03;11.50;99.90
3330;DHT22;1677;49.576;10.990;2023-04-24T06:12:28;11.60;99.90
3330;DHT22;1677;49.576;10.990;2023-04-24T06:14:54;11.60;99.90
3330;DHT22;1677;49.576;10.990;2023-04-24T06:17:20;11.60;99.90
3330;DHT22;1677;49.576;10.990;2023-04-24T06:19:46;11.50;99.90
3330;DHT22;1677;49.576;10.990;2023-04-24T06:22:12;11.60;99.90
3330;DHT22;1677;49.576;10.990;2023-04-24T06:24:40;11.60;99.90
3330;DHT22;1677;49.576;10.990;2023-04-24T06:27:05;11.60;99.90
3330;DHT22;1677;49.576;10.990;2023-04-24T06:29:32;11.60;99.90
3330;DHT22;1677;49.576;10.990;2023-04-24T06:31:58;11.80;99.90
3330;DHT22;1677;49.576;10.990;2023-04-24T06:34:24;12.00;99.90
3330;DHT22;1677;49.576;10.990;2023-04-24T06:36:49;12.10;99.90
3330;DHT22;1677;49.576;10.990;2023-04-24T06:39:15;12.10;99.90
3330;DHT22;1677;49.576;10.990;2023-04-24T06:41:40;12.10;99.90
3330;DHT22;1677;49.576;10.990;2023-04-24T06:44:06;12.10;99.90
3330;DHT22;1677;49.576;10.990;2023-04-24T06:46:32;12.10;99.90
3330;DHT22;1677;49.576;10.990;2023-04-24T06:48:57;12.20;99.90
3330;DHT22;1677;49.576;10.990;2023-04-24T06:51:24;12.20;99.90
3330;DHT22;1677;49.576;10.990;2023-04-24T06:53:51;12.30;99.90
3330;DHT22;1677;49.576;10.990;2023-04-24T06:56:17;12.50;99.90
3330;DHT22;1677;49.576;10.990;2023-04-24T06:58:42;12.50;99.90
3330;DHT22;1677;49.576;10.990;2023-04-24T07:01:09;12.60;99.90
3330;DHT22;1677;49.576;10.990;2023-04-24T07:03:35;12.60;99.90
3330;DHT22;1677;49.576;10.990;2023-04-24T07:06:00;12.80;99.90
3330;DHT22;1677;49.576;10.990;2023-04-24T07:08:26;13.10;99.90
3330;DHT22;1677;49.576;10.990;2023-04-24T07:10:52;13.20;99.90
3330;DHT22;1677;49.576;10.990;2023-04-24T07:13:17;13.50;99.90
3330;DHT22;1677;49.576;10.990;2023-04-24T07:15:43;13.90;99.90
3330;DHT22;1677;49.576;10.990;2023-04-24T07:18:09;14.00;99.90
3330;DHT22;1677;49.576;10.990;2023-04-24T07:20:34;14.20;99.90
3330;DHT22;1677;49.576;10.990;2023-04-24T07:23:00;14.20;99.90
3330;DHT22;1677;49.576;10.990;2023-04-24T07:25:26;14.40;99.90
3330;DHT22;1677;49.576;10.990;2023-04-24T07:27:52;14.60;99.90
3330;DHT22;1677;49.576;10.990;2023-04-24T07:30:18;14.50;99.90
3330;DHT22;1677;49.576;10.990;2023-04-24T07:32:44;14.50;99.90
3330;DHT22;1677;49.576;10.990;2023-04-24T07:35:09;14.40;99.90
3330;DHT22;1677;49.576;10.990;2023-04-24T07:37:35;14.30;99.90
3330;DHT22;1677;49.576;10.990;2023-04-24T07:40:01;14.00;99.90
3330;DHT22;1677;49.576;10.990;2023-04-24T07:42:27;14.00;99.90
3330;DHT22;1677;49.576;10.990;2023-04-24T07:44:53;14.20;99.90
3330;DHT22;1677;49.576;10.990;2023-04-24T07:47:19;14.30;99.90
3330;DHT22;1677;49.576;10.990;2023-04-24T07:49:44;14.40;99.90
3330;DHT22;1677;49.576;10.990;2023-04-24T07:52:10;14.50;99.90
3330;DHT22;1677;49.576;10.990;2023-04-24T07:54:35;15.40;99.90
3330;DHT22;1677;49.576;10.990;2023-04-24T07:57:03;17.50;99.90
3330;DHT22;1677;49.576;10.990;2023-04-24T07:59:28;20.30;99.60
3330;DHT22;1677;49.576;10.990;2023-04-24T08:01:54;22.60;94.20
3330;DHT22;1677;49.576;10.990;2023-04-24T08:04:19;23.90;90.60
3330;DHT22;1677;49.576;10.990;2023-04-24T08:06:47;23.70;81.40
3330;DHT22;1677;49.576;10.990;2023-04-24T08:09:13;23.40;84.90
3330;DHT22;1677;49.576;10.990;2023-04-24T08:11:38;23.00;78.10
3330;DHT22;1677;49.576;10.990;2023-04-24T08:14:04;21.20;78.50
3330;DHT22;1677;49.576;10.990;2023-04-24T08:16:29;20.10;79.30
3330;DHT22;1677;49.576;10.990;2023-04-24T08:18:55;19.50;86.20
3330;DHT22;1677;49.576;10.990;2023-04-24T08:21:20;18.80;86.90
3330;DHT22;1677;49.576;10.990;2023-04-24T08:23:46;18.60;88.90
3330;DHT22;1677;49.576;10.990;2023-04-24T08:26:13;17.80;91.30
3330;DHT22;1677;49.576;10.990;2023-04-24T08:28:38;17.00;92.80
3330;DHT22;1677;49.576;10.990;2023-04-24T08:31:04;16.40;95.30
3330;DHT22;1677;49.576;10.990;2023-04-24T08:33:30;16.00;97.20
3330;DHT22;1677;49.576;10.990;2023-04-24T08:36:01;15.70;98.00
3330;DHT22;1677;49.576;10.990;2023-04-24T08:38:27;15.50;97.90
3330;DHT22;1677;49.576;10.990;2023-04-24T08:40:53;15.30;99.00
3330;DHT22;1677;49.576;10.990;2023-04-24T08:43:21;15.20;99.10
3330;DHT22;1677;49.576;10.990;2023-04-24T08:45:47;15.00;99.10
3330;DHT22;1677;49.576;10.990;2023-04-24T08:48:13;15.10;99.80
3330;DHT22;1677;49.576;10.990;2023-04-24T08:50:40;15.10;99.50
3330;DHT22;1677;49.576;10.990;2023-04-24T08:53:08;15.40;99.50
3330;DHT22;1677;49.576;10.990;2023-04-24T08:55:34;15.30;98.50
3330;DHT22;1677;49.576;10.990;2023-04-24T08:58:01;15.20;98.60
3330;DHT22;1677;49.576;10.990;2023-04-24T09:00:27;15.10;99.40
3330;DHT22;1677;49.576;10.990;2023-04-24T09:02:53;15.30;99.30
3330;DHT22;1677;49.576;10.990;2023-04-24T09:05:21;15.40;98.50
3330;DHT22;1677;49.576;10.990;2023-04-24T09:07:54;15.10;98.80
3330;DHT22;1677;49.576;10.990;2023-04-24T09:10:22;14.90;99.10
3330;DHT22;1677;49.576;10.990;2023-04-24T09:12:52;14.70;99.90
3330;DHT22;1677;49.576;10.990;2023-04-24T09:15:19;14.70;99.90
3330;DHT22;1677;49.576;10.990;2023-04-24T09:17:46;15.30;99.90
3330;DHT22;1677;49.576;10.990;2023-04-24T09:20:12;17.30;99.90
3330;DHT22;1677;49.576;10.990;2023-04-24T09:22:37;20.60;94.70
3330;DHT22;1677;49.576;10.990;2023-04-24T09:25:05;21.70;90.20
3330;DHT22;1677;49.576;10.990;2023-04-24T09:27:35;20.70;89.90
3330;DHT22;1677;49.576;10.990;2023-04-24T09:30:01;19.50;90.60
3330;DHT22;1677;49.576;10.990;2023-04-24T09:32:27;18.40;91.70
3330;DHT22;1677;49.576;10.990;2023-04-24T09:35:12;17.40;94.00
3330;DHT22;1677;49.576;10.990;2023-04-24T09:37:43;16.80;94.80
3330;DHT22;1677;49.576;10.990;2023-04-24T09:42:36;17.20;94.70
3330;DHT22;1677;49.576;10.990;2023-04-24T09:45:01;17.10;95.00
3330;DHT22;1677;49.576;10.990;2023-04-24T09:47:27;17.10;95.40
3330;DHT22;1677;49.576;10.990;2023-04-24T09:49:57;16.80;93.10
3330;DHT22;1677;49.576;10.990;2023-04-24T09:52:23;16.60;93.50
3330;DHT22;1677;49.576;10.990;2023-04-24T09:54:53;16.60;94.10
3330;DHT22;1677;49.576;10.990;2023-04-24T09:57:19;16.30;93.80
3330;DHT22;1677;49.576;10.990;2023-04-24T09:59:46;16.10;94.70
3330;DHT22;1677;49.576;10.990;2023-04-24T10:02:18;16.60;95.40
3330;DHT22;1677;49.576;10.990;2023-04-24T10:04:57;18.90;92.70
3330;DHT22;1677;49.576;10.990;2023-04-24T10:07:27;22.00;85.30
3330;DHT22;1677;49.576;10.990;2023-04-24T10:09:54;24.80;77.60
3330;DHT22;1677;49.576;10.990;2023-04-24T10:12:20;26.50;65.60
3330;DHT22;1677;49.576;10.990;2023-04-24T10:14:46;25.30;53.80
3330;DHT22;1677;49.576;10.990;2023-04-24T10:17:12;24.10;56.40
3330;DHT22;1677;49.576;10.990;2023-04-24T10:19:40;23.40;58.20
3330;DHT22;1677;49.576;10.990;2023-04-24T10:22:08;21.90;59.30
3330;DHT22;1677;49.576;10.990;2023-04-24T10:24:33;19.80;68.60
3330;DHT22;1677;49.576;10.990;2023-04-24T10:27:01;17.90;80.30
3330;DHT22;1677;49.576;10.990;2023-04-24T10:29:27;17.10;89.20
3330;DHT22;1677;49.576;10.990;2023-04-24T10:31:54;16.30;90.00
3330;DHT22;1677;49.576;10.990;2023-04-24T10:34:20;16.00;91.20
3330;DHT22;1677;49.576;10.990;2023-04-24T10:36:53;16.50;92.00
3330;DHT22;1677;49.576;10.990;2023-04-24T10:39:20;16.40;90.70
3330;DHT22;1677;49.576;10.990;2023-04-24T10:41:48;15.80;92.00
3330;DHT22;1677;49.576;10.990;2023-04-24T10:44:15;15.70;92.40
3330;DHT22;1677;49.576;10.990;2023-04-24T10:46:53;15.50;92.20
3330;DHT22;1677;49.576;10.990;2023-04-24T10:49:28;15.70;92.60
3330;DHT22;1677;49.576;10.990;2023-04-24T10:51:54;15.90;92.40
3330;DHT22;1677;49.576;10.990;2023-04-24T10:54:36;16.00;92.80
3330;DHT22;1677;49.576;10.990;2023-04-24T10:59:48;16.40;92.00
3330;DHT22;1677;49.576;10.990;2023-04-24T11:02:14;16.10;93.20
3330;DHT22;1677;49.576;10.990;2023-04-24T11:04:40;15.90;92.60
3330;DHT22;1677;49.576;10.990;2023-04-24T11:07:09;15.60;93.30
3330;DHT22;1677;49.576;10.990;2023-04-24T11:09:34;15.50;93.80
3330;DHT22;1677;49.576;10.990;2023-04-24T11:12:09;15.50;92.00
3330;DHT22;1677;49.576;10.990;2023-04-24T11:17:38;15.90;90.50
3330;DHT22;1677;49.576;10.990;2023-04-24T11:20:09;16.20;90.30
3330;DHT22;1677;49.576;10.990;2023-04-24T11:22:36;17.40;91.20
3330;DHT22;1677;49.576;10.990;2023-04-24T11:25:03;19.70;83.20
3330;DHT22;1677;49.576;10.990;2023-04-24T11:27:31;20.20;78.20
3330;DHT22;1677;49.576;10.990;2023-04-24T11:32:37;18.80;81.70
3330;DHT22;1677;49.576;10.990;2023-04-24T11:35:15;17.90;82.90
3330;DHT22;1677;49.576;10.990;2023-04-24T11:37:49;17.20;84.60
3330;DHT22;1677;49.576;10.990;2023-04-24T11:40:17;16.40;85.80
3330;DHT22;1677;49.576;10.990;2023-04-24T11:42:45;15.90;86.80
3330;DHT22;1677;49.576;10.990;2023-04-24T11:47:42;14.90;87.90
3330;DHT22;1677;49.576;10.990;2023-04-24T11:50:10;14.60;89.50
3330;DHT22;1677;49.576;10.990;2023-04-24T11:52:41;14.40;88.70
3330;DHT22;1677;49.576;10.990;2023-04-24T11:55:22;14.40;89.30
3330;DHT22;1677;49.576;10.990;2023-04-24T11:57:49;14.60;90.90
3330;DHT22;1677;49.576;10.990;2023-04-24T12:00:20;15.00;91.40
3330;DHT22;1677;49.576;10.990;2023-04-24T12:02:46;15.40;91.80
3330;DHT22;1677;49.576;10.990;2023-04-24T12:05:26;15.70;91.90
3330;DHT22;1677;49.576;10.990;2023-04-24T12:07:52;15.80;91.60
3330;DHT22;1677;49.576;10.990;2023-04-24T12:10:22;15.80;91.50
3330;DHT22;1677;49.576;10.990;2023-04-24T12:12:49;16.00;91.70
3330;DHT22;1677;49.576;10.990;2023-04-24T12:15:17;16.10;91.80
3330;DHT22;1677;49.576;10.990;2023-04-24T12:17:43;16.40;92.30
3330;DHT22;1677;49.576;10.990;2023-04-24T12:20:09;16.80;91.80
3330;DHT22;1677;49.576;10.990;2023-04-24T12:22:53;17.10;91.20
3330;DHT22;1677;49.576;10.990;2023-04-24T12:25:21;17.30;91.00
3330;DHT22;1677;49.576;10.990;2023-04-24T12:27:53;16.90;91.20
3330;DHT22;1677;49.576;10.990;2023-04-24T12:30:19;16.50;90.20
3330;DHT22;1677;49.576;10.990;2023-04-24T12:32:49;16.10;90.70
3330;DHT22;1677;49.576;10.990;2023-04-24T12:35:27;15.90;91.70
3330;DHT22;1677;49.576;10.990;2023-04-24T12:37:52;15.80;92.80
3330;DHT22;1677;49.576;10.990;2023-04-24T12:40:20;15.80;92.70
3330;DHT22;1677;49.576;10.990;2023-04-24T12:42:48;15.70;91.90
3330;DHT22;1677;49.576;10.990;2023-04-24T12:45:15;15.70;91.60
3330;DHT22;1677;49.576;10.990;2023-04-24T12:47:41;15.60;91.80
3330;DHT22;1677;49.576;10.990;2023-04-24T12:50:09;15.70;92.40
3330;DHT22;1677;49.576;10.990;2023-04-24T12:52:35;15.80;92.20
3330;DHT22;1677;49.576;10.990;2023-04-24T12:55:00;15.70;90.70
3330;DHT22;1677;49.576;10.990;2023-04-24T12:57:28;15.60;91.40
3330;DHT22;1677;49.576;10.990;2023-04-24T12:59:55;15.60;91.50
3330;DHT22;1677;49.576;10.990;2023-04-24T13:02:22;15.50;91.50
3330;DHT22;1677;49.576;10.990;2023-04-24T13:04:48;15.60;91.80
3330;DHT22;1677;49.576;10.990;2023-04-24T13:07:14;16.00;91.60
3330;DHT22;1677;49.576;10.990;2023-04-24T13:09:41;16.50;92.00
3330;DHT22;1677;49.576;10.990;2023-04-24T13:12:07;17.00;91.90
3330;DHT22;1677;49.576;10.990;2023-04-24T13:14:33;17.50;90.90
3330;DHT22;1677;49.576;10.990;2023-04-24T13:16:59;17.70;89.90
3330;DHT22;1677;49.576;10.990;2023-04-24T13:19:25;17.30;87.60
3330;DHT22;1677;49.576;10.990;2023-04-24T13:21:51;17.20;90.10
3330;DHT22;1677;49.576;10.990;2023-04-24T13:24:17;17.10;90.20
3330;DHT22;1677;49.576;10.990;2023-04-24T13:26:43;16.90;89.70
3330;DHT22;1677;49.576;10.990;2023-04-24T13:29:08;16.80;89.50
3330;DHT22;1677;49.576;10.990;2023-04-24T13:31:34;16.60;88.10
3330;DHT22;1677;49.576;10.990;2023-04-24T13:34:01;16.30;89.90
3330;DHT22;1677;49.576;10.990;2023-04-24T13:36:27;16.20;87.80
3330;DHT22;1677;49.576;10.990;2023-04-24T13:38:53;16.20;90.00
3330;DHT22;1677;49.576;10.990;2023-04-24T13:41:18;16.10;89.30
3330;DHT22;1677;49.576;10.990;2023-04-24T13:43:44;16.60;90.70
3330;DHT22;1677;49.576;10.990;2023-04-24T13:46:09;17.30;90.60
3330;DHT22;1677;49.576;10.990;2023-04-24T13:48:35;17.70;90.40
3330;DHT22;1677;49.576;10.990;2023-04-24T13:51:01;17.90;89.20
3330;DHT22;1677;49.576;10.990;2023-04-24T13:53:26;17.60;88.90
3330;DHT22;1677;49.576;10.990;2023-04-24T13:55:52;17.60;87.60
3330;DHT22;1677;49.576;10.990;2023-04-24T13:58:17;17.40;88.30
3330;DHT22;1677;49.576;10.990;2023-04-24T14:00:43;17.40;88.10
3330;DHT22;1677;49.576;10.990;2023-04-24T14:03:08;17.30;85.10
3330;DHT22;1677;49.576;10.990;2023-04-24T14:05:34;17.00;83.60
3330;DHT22;1677;49.576;10.990;2023-04-24T14:08:00;16.80;87.00
3330;DHT22;1677;49.576;10.990;2023-04-24T14:10:25;16.60;86.50
3330;DHT22;1677;49.576;10.990;2023-04-24T14:12:52;16.60;90.40
3330;DHT22;1677;49.576;10.990;2023-04-24T14:15:18;16.60;90.50
3330;DHT22;1677;49.576;10.990;2023-04-24T14:17:44;16.60;91.10
3330;DHT22;1677;49.576;10.990;2023-04-24T14:20:10;16.60;91.50
3330;DHT22;1677;49.576;10.990;2023-04-24T14:22:36;16.40;91.40
3330;DHT22;1677;49.576;10.990;2023-04-24T14:25:01;16.70;90.80
3330;DHT22;1677;49.576;10.990;2023-04-24T14:27:27;16.70;90.00
3330;DHT22;1677;49.576;10.990;2023-04-24T14:29:52;16.50;88.40
3330;DHT22;1677;49.576;10.990;2023-04-24T14:32:18;16.30;90.40
3330;DHT22;1677;49.576;10.990;2023-04-24T14:34:44;16.00;91.60
3330;DHT22;1677;49.576;10.990;2023-04-24T14:37:09;15.70;91.00
3330;DHT22;1677;49.576;10.990;2023-04-24T14:39:35;15.50;91.60
3330;DHT22;1677;49.576;10.990;2023-04-24T14:42:00;15.10;92.70
3330;DHT22;1677;49.576;10.990;2023-04-24T14:44:26;14.90;94.10
3330;DHT22;1677;49.576;10.990;2023-04-24T14:46:52;14.60;94.20
3330;DHT22;1677;49.576;10.990;2023-04-24T14:49:18;14.50;93.00
3330;DHT22;1677;49.576;10.990;2023-04-24T14:51:44;14.50;93.00
3330;DHT22;1677;49.576;10.990;2023-04-24T14:54:09;14.60;93.30
3330;DHT22;1677;49.576;10.990;2023-04-24T14:56:35;14.80;93.20
3330;DHT22;1677;49.576;10.990;2023-04-24T14:59:01;15.00;93.00
3330;DHT22;1677;49.576;10.990;2023-04-24T15:01:27;15.40;91.80
3330;DHT22;1677;49.576;10.990;2023-04-24T15:03:52;15.60;91.30
3330;DHT22;1677;49.576;10.990;2023-04-24T15:06:18;15.70;90.90
3330;DHT22;1677;49.576;10.990;2023-04-24T15:08:44;16.10;91.70
3330;DHT22;1677;49.576;10.990;2023-04-24T15:11:10;16.00;90.50
3330;DHT22;1677;49.576;10.990;2023-04-24T15:13:36;16.00;90.90
3330;DHT22;1677;49.576;10.990;2023-04-24T15:16:01;15.90;90.70
3330;DHT22;1677;49.576;10.990;2023-04-24T15:18:27;15.80;90.60
3330;DHT22;1677;49.576;10.990;2023-04-24T15:20:54;15.70;91.30
3330;DHT22;1677;49.576;10.990;2023-04-24T15:23:20;15.60;91.60
3330;DHT22;1677;49.576;10.990;2023-04-24T15:25:46;15.50;91.50
3330;DHT22;1677;49.576;10.990;2023-04-24T15:28:11;15.40;91.40
3330;DHT22;1677;49.576;10.990;2023-04-24T15:30:37;15.50;91.20
3330;DHT22;1677;49.576;10.990;2023-04-24T15:33:03;15.40;90.50
3330;DHT22;1677;49.576;10.990;2023-04-24T15:35:29;15.20;91.00
3330;DHT22;1677;49.576;10.990;2023-04-24T15:37:55;15.10;92.00
3330;DHT22;1677;49.576;10.990;2023-04-24T15:40:20;15.00;90.90
3330;DHT22;1677;49.576;10.990;2023-04-24T15:42:47;14.90;91.00
3330;DHT22;1677;49.576;10.990;2023-04-24T15:45:13;14.70;91.00
3330;DHT22;1677;49.576;10.990;2023-04-24T15:47:39;14.50;91.40
3330;DHT22;1677;49.576;10.990;2023-04-24T15:50:05;14.30;91.20
3330;DHT22;1677;49.576;10.990;2023-04-24T15:52:33;14.30;91.00
3330;DHT22;1677;49.576;10.990;2023-04-24T15:54:59;14.40;91.60